WUK1356 EPPO-EGGW
Flight info
| Callsign | WUK1356 |
|---|---|
| Flight time | N/A |
| Altitude | 38000 |
| Route | ELSUP Z181 XIGRI DCT ROBEG L980 OSNAD DCT AMSAN DCT RKN DCT OTMEC DCT NIGUG DCT NOGRO M40 RINIS |
| Aircraft | A320/M-SDE3FGHIRWY/LB1 |
Departure
| Time | 2026-04-28 12:57 |
|---|---|
| Airport | Poznań-Ławica Airport (EPPO) |
Arrival
| Time | N/A |
|---|---|
| Airport | London Luton Airport (EGGW) |
| Time | Latitude | Longitude | Altitude | Speed | Heading |
|---|---|---|---|---|---|
| 2026-04-28 12:32 | 52.41572 | 16.82985 | 305 ft | 0 kts | 189° |
| 2026-04-28 12:47 | 52.41581 | 16.82987 | 303 ft | 3 kts | 189° |
| 2026-04-28 12:48 | 52.41601 | 16.82992 | 302 ft | 3 kts | 185° |
| 2026-04-28 12:48 | 52.41621 | 16.82993 | 303 ft | 3 kts | 175° |
| 2026-04-28 12:48 | 52.41639 | 16.82989 | 303 ft | 2 kts | 162° |
| 2026-04-28 12:48 | 52.41642 | 16.82987 | 303 ft | 1 kts | 161° |
| 2026-04-28 12:51 | 52.41637 | 16.82997 | 303 ft | 1 kts | 117° |
| 2026-04-28 12:51 | 52.41637 | 16.83026 | 318 ft | 4 kts | 91° |
| 2026-04-28 12:52 | 52.41633 | 16.83094 | 302 ft | 8 kts | 102° |
| 2026-04-28 12:52 | 52.41620 | 16.83197 | 302 ft | 11 kts | 102° |
| 2026-04-28 12:52 | 52.41605 | 16.83336 | 301 ft | 14 kts | 98° |
| 2026-04-28 12:52 | 52.41577 | 16.83506 | 301 ft | 17 kts | 110° |
| 2026-04-28 12:53 | 52.41570 | 16.83711 | 301 ft | 19 kts | 91° |
| 2026-04-28 12:53 | 52.41558 | 16.83903 | 298 ft | 17 kts | 92° |
| 2026-04-28 12:53 | 52.41561 | 16.84033 | 298 ft | 11 kts | 69° |
| 2026-04-28 12:53 | 52.41635 | 16.84088 | 299 ft | 13 kts | 355° |
| 2026-04-28 12:54 | 52.41699 | 16.84018 | 300 ft | 12 kts | 8° |
| 2026-04-28 12:54 | 52.41727 | 16.84035 | 298 ft | 0 kts | 22° |
| 2026-04-28 12:55 | 52.41733 | 16.84040 | 300 ft | 2 kts | 23° |
| 2026-04-28 12:55 | 52.41773 | 16.84066 | 298 ft | 18 kts | 20° |
| 2026-04-28 12:56 | 52.41830 | 16.84056 | 299 ft | 8 kts | 292° |
| 2026-04-28 12:56 | 52.41848 | 16.83960 | 301 ft | 11 kts | 287° |
| 2026-04-28 12:56 | 52.41924 | 16.83574 | 302 ft | 70 kts | 287° |
| 2026-04-28 12:56 | 52.42134 | 16.82484 | 308 ft | 126 kts | 287° |
| 2026-04-28 12:57 | 52.42436 | 16.80928 | 455 ft | 152 kts | 288° |
| 2026-04-28 12:57 | 52.42738 | 16.79343 | 1114 ft | 143 kts | 288° |
| 2026-04-28 12:57 | 52.43034 | 16.77771 | 1716 ft | 145 kts | 289° |
| 2026-04-28 12:57 | 52.43336 | 16.76195 | 2293 ft | 144 kts | 289° |
| 2026-04-28 12:58 | 52.43650 | 16.74598 | 2733 ft | 155 kts | 289° |
| 2026-04-28 12:58 | 52.44006 | 16.72798 | 3013 ft | 179 kts | 289° |
| 2026-04-28 12:58 | 52.44425 | 16.70728 | 3329 ft | 203 kts | 289° |
| 2026-04-28 12:58 | 52.44886 | 16.68405 | 3697 ft | 227 kts | 289° |
| 2026-04-28 12:59 | 52.45383 | 16.65800 | 4222 ft | 251 kts | 288° |
| 2026-04-28 12:59 | 52.45914 | 16.62983 | 5014 ft | 263 kts | 289° |
| 2026-04-28 12:59 | 52.46460 | 16.60078 | 5740 ft | 270 kts | 289° |
| 2026-04-28 12:59 | 52.47014 | 16.57135 | 6018 ft | 271 kts | 289° |
| 2026-04-28 13:00 | 52.47571 | 16.54181 | 6973 ft | 271 kts | 290° |
| 2026-04-28 13:00 | 52.48129 | 16.51232 | 8003 ft | 271 kts | 290° |
| 2026-04-28 13:00 | 52.48548 | 16.48205 | 8979 ft | 275 kts | 279° |
| 2026-04-28 13:00 | 52.48720 | 16.45066 | 9959 ft | 277 kts | 279° |
| 2026-04-28 13:01 | 52.48893 | 16.41908 | 10828 ft | 279 kts | 279° |
| 2026-04-28 13:01 | 52.49071 | 16.38683 | 11366 ft | 294 kts | 279° |
| 2026-04-28 13:01 | 52.49269 | 16.35216 | 11686 ft | 314 kts | 279° |
| 2026-04-28 13:01 | 52.49470 | 16.31591 | 12338 ft | 321 kts | 278° |
| 2026-04-28 13:02 | 52.49667 | 16.27916 | 13099 ft | 325 kts | 278° |
| 2026-04-28 13:02 | 52.49859 | 16.24212 | 13871 ft | 328 kts | 278° |
| 2026-04-28 13:02 | 52.50053 | 16.20469 | 14580 ft | 331 kts | 278° |
| 2026-04-28 13:02 | 52.50251 | 16.16691 | 15257 ft | 333 kts | 278° |
| 2026-04-28 13:03 | 52.50448 | 16.12936 | 15894 ft | 336 kts | 278° |
| 2026-04-28 13:03 | 52.50652 | 16.09050 | 16539 ft | 339 kts | 278° |
| 2026-04-28 13:03 | 52.50850 | 16.05238 | 17187 ft | 342 kts | 278° |
| 2026-04-28 13:03 | 52.51054 | 16.01323 | 17857 ft | 344 kts | 278° |
| 2026-04-28 13:04 | 52.51259 | 15.97394 | 18530 ft | 347 kts | 278° |
| 2026-04-28 13:04 | 52.51464 | 15.93428 | 19114 ft | 350 kts | 278° |
| 2026-04-28 13:04 | 52.51670 | 15.89436 | 19707 ft | 352 kts | 278° |
| 2026-04-28 13:04 | 52.51872 | 15.85411 | 20307 ft | 355 kts | 278° |
| 2026-04-28 13:05 | 52.52071 | 15.81363 | 20904 ft | 357 kts | 278° |
| 2026-04-28 13:05 | 52.52272 | 15.77286 | 21474 ft | 360 kts | 278° |
| 2026-04-28 13:05 | 52.52474 | 15.73180 | 22031 ft | 362 kts | 278° |
| 2026-04-28 13:05 | 52.52678 | 15.69048 | 22557 ft | 364 kts | 278° |
| 2026-04-28 13:06 | 52.52883 | 15.64876 | 23103 ft | 367 kts | 278° |
| 2026-04-28 13:06 | 52.53087 | 15.60681 | 23590 ft | 371 kts | 278° |
| 2026-04-28 13:06 | 52.53287 | 15.56451 | 24067 ft | 374 kts | 278° |
| 2026-04-28 13:06 | 52.53487 | 15.52188 | 24503 ft | 376 kts | 278° |
| 2026-04-28 13:07 | 52.53689 | 15.47890 | 24947 ft | 378 kts | 278° |
| 2026-04-28 13:07 | 52.53890 | 15.43562 | 25390 ft | 380 kts | 278° |
| 2026-04-28 13:07 | 52.53944 | 15.39190 | 25816 ft | 386 kts | 271° |
| 2026-04-28 13:07 | 52.53791 | 15.34780 | 26249 ft | 388 kts | 270° |
| 2026-04-28 13:08 | 52.53639 | 15.30357 | 26685 ft | 390 kts | 270° |
| 2026-04-28 13:08 | 52.53485 | 15.25886 | 27124 ft | 392 kts | 270° |
| 2026-04-28 13:08 | 52.53328 | 15.21401 | 27546 ft | 394 kts | 270° |
| 2026-04-28 13:08 | 52.53170 | 15.16895 | 27960 ft | 396 kts | 270° |
| 2026-04-28 13:09 | 52.53013 | 15.12423 | 28362 ft | 399 kts | 270° |
| 2026-04-28 13:09 | 52.52847 | 15.07803 | 28744 ft | 401 kts | 270° |
| 2026-04-28 13:09 | 52.52682 | 15.03286 | 29135 ft | 404 kts | 270° |
| 2026-04-28 13:09 | 52.52509 | 14.98667 | 29539 ft | 406 kts | 270° |
| 2026-04-28 13:10 | 52.52336 | 14.94021 | 29958 ft | 409 kts | 270° |
| 2026-04-28 13:10 | 52.52163 | 14.89350 | 30366 ft | 411 kts | 270° |
| 2026-04-28 13:10 | 52.51988 | 14.84652 | 30708 ft | 413 kts | 270° |
| 2026-04-28 13:10 | 52.51809 | 14.79926 | 31031 ft | 416 kts | 270° |
| 2026-04-28 13:11 | 52.51626 | 14.75180 | 31347 ft | 418 kts | 270° |
| 2026-04-28 13:11 | 52.51440 | 14.70397 | 31687 ft | 420 kts | 270° |
| 2026-04-28 13:11 | 52.51251 | 14.65611 | 32148 ft | 420 kts | 270° |
| 2026-04-28 13:11 | 52.51064 | 14.60890 | 32613 ft | 419 kts | 270° |
| 2026-04-28 13:12 | 52.50898 | 14.56119 | 33065 ft | 418 kts | 270° |
| 2026-04-28 13:12 | 52.50754 | 14.51362 | 33518 ft | 418 kts | 271° |
| 2026-04-28 13:12 | 52.50620 | 14.46601 | 33976 ft | 417 kts | 271° |
| 2026-04-28 13:12 | 52.50487 | 14.41845 | 34418 ft | 417 kts | 271° |
| 2026-04-28 13:13 | 52.50351 | 14.37100 | 34777 ft | 417 kts | 271° |
| 2026-04-28 13:13 | 52.50211 | 14.32344 | 35117 ft | 417 kts | 271° |
| 2026-04-28 13:13 | 52.50066 | 14.27585 | 35452 ft | 418 kts | 270° |
| 2026-04-28 13:13 | 52.49916 | 14.22829 | 35776 ft | 418 kts | 270° |
| 2026-04-28 13:14 | 52.49763 | 14.18120 | 36079 ft | 419 kts | 270° |
| 2026-04-28 13:14 | 52.49601 | 14.13288 | 36394 ft | 419 kts | 270° |
| 2026-04-28 13:14 | 52.49440 | 14.08570 | 36703 ft | 419 kts | 270° |
| 2026-04-28 13:14 | 52.49274 | 14.03725 | 36955 ft | 421 kts | 270° |
| 2026-04-28 13:15 | 52.49113 | 13.98991 | 37218 ft | 422 kts | 270° |
| 2026-04-28 13:15 | 52.48946 | 13.94192 | 37502 ft | 422 kts | 270° |
| 2026-04-28 13:15 | 52.48776 | 13.89380 | 37785 ft | 423 kts | 270° |
| 2026-04-28 13:15 | 52.48603 | 13.84564 | 38068 ft | 423 kts | 270° |
| 2026-04-28 13:16 | 52.48428 | 13.79750 | 38290 ft | 424 kts | 270° |
| 2026-04-28 13:16 | 52.48081 | 13.70058 | 38333 ft | 426 kts | 270° |
| 2026-04-28 13:17 | 52.47726 | 13.60344 | 38331 ft | 426 kts | 270° |
| 2026-04-28 13:17 | 52.47356 | 13.50649 | 38332 ft | 426 kts | 269° |
| 2026-04-28 13:18 | 52.46977 | 13.40945 | 38327 ft | 426 kts | 269° |
| 2026-04-28 13:18 | 52.46589 | 13.31252 | 38331 ft | 426 kts | 269° |
| 2026-04-28 13:19 | 52.46195 | 13.21611 | 38333 ft | 427 kts | 269° |
| 2026-04-28 13:19 | 52.45794 | 13.11908 | 38337 ft | 427 kts | 269° |
| 2026-04-28 13:20 | 52.45385 | 13.02200 | 38308 ft | 427 kts | 269° |
| 2026-04-28 13:20 | 52.44970 | 12.92477 | 38311 ft | 428 kts | 269° |
| 2026-04-28 13:21 | 52.44543 | 12.82754 | 38313 ft | 428 kts | 269° |
| 2026-04-28 13:21 | 52.44108 | 12.73014 | 38321 ft | 428 kts | 269° |
| 2026-04-28 13:22 | 52.43671 | 12.63277 | 38326 ft | 429 kts | 269° |
| 2026-04-28 13:22 | 52.43212 | 12.53535 | 38335 ft | 429 kts | 269° |
| 2026-04-28 13:23 | 52.42750 | 12.43793 | 38311 ft | 429 kts | 269° |
| 2026-04-28 13:23 | 52.42281 | 12.34096 | 38329 ft | 430 kts | 268° |
| 2026-04-28 13:24 | 52.41805 | 12.24334 | 38328 ft | 430 kts | 268° |
| 2026-04-28 13:24 | 52.41324 | 12.14558 | 38332 ft | 430 kts | 268° |
| 2026-04-28 13:25 | 52.40835 | 12.04790 | 38339 ft | 431 kts | 268° |
| 2026-04-28 13:25 | 52.40329 | 11.95002 | 38318 ft | 431 kts | 268° |
| 2026-04-28 13:26 | 52.39817 | 11.85226 | 38316 ft | 431 kts | 268° |
| 2026-04-28 13:26 | 52.39301 | 11.75434 | 38332 ft | 431 kts | 268° |
| 2026-04-28 13:27 | 52.38774 | 11.65653 | 38342 ft | 431 kts | 268° |
| 2026-04-28 13:27 | 52.38241 | 11.55882 | 38337 ft | 431 kts | 268° |
| 2026-04-28 13:28 | 52.37705 | 11.46173 | 38316 ft | 431 kts | 268° |
| 2026-04-28 13:28 | 52.37155 | 11.36391 | 38320 ft | 432 kts | 267° |
| 2026-04-28 13:29 | 52.36590 | 11.26607 | 38324 ft | 432 kts | 267° |
| 2026-04-28 13:29 | 52.36020 | 11.16814 | 38330 ft | 433 kts | 267° |
| 2026-04-28 13:30 | 52.35441 | 11.07008 | 38335 ft | 433 kts | 267° |
| 2026-04-28 13:30 | 52.34858 | 10.97210 | 38334 ft | 433 kts | 267° |
| 2026-04-28 13:31 | 52.33970 | 10.82503 | 38319 ft | 434 kts | 267° |
| 2026-04-28 13:31 | 52.33359 | 10.72681 | 38323 ft | 434 kts | 267° |
| 2026-04-28 13:32 | 52.32742 | 10.62854 | 38330 ft | 434 kts | 266° |
| 2026-04-28 13:32 | 52.32222 | 10.54689 | 38326 ft | 435 kts | 266° |
| 2026-04-28 13:33 | 52.31587 | 10.44867 | 38335 ft | 435 kts | 266° |
| 2026-04-28 13:33 | 52.30845 | 10.33434 | 38305 ft | 435 kts | 266° |
| 2026-04-28 13:34 | 52.30305 | 10.25194 | 38311 ft | 436 kts | 266° |
| 2026-04-28 13:34 | 52.29649 | 10.15351 | 38321 ft | 436 kts | 266° |
| 2026-04-28 13:35 | 52.28985 | 10.05593 | 38322 ft | 435 kts | 266° |
| 2026-04-28 13:35 | 52.28313 | 9.95760 | 38328 ft | 435 kts | 266° |
| 2026-04-28 13:36 | 52.27632 | 9.85918 | 38308 ft | 436 kts | 266° |
| 2026-04-28 13:36 | 52.26945 | 9.76076 | 38311 ft | 436 kts | 266° |
| 2026-04-28 13:37 | 52.26247 | 9.66231 | 38311 ft | 437 kts | 266° |
| 2026-04-28 13:37 | 52.25538 | 9.56436 | 38319 ft | 437 kts | 266° |
| 2026-04-28 13:38 | 52.24817 | 9.46587 | 38322 ft | 437 kts | 265° |
| 2026-04-28 13:38 | 52.24090 | 9.36728 | 38309 ft | 437 kts | 265° |
| 2026-04-28 13:39 | 52.23356 | 9.26878 | 38311 ft | 437 kts | 266° |
| 2026-04-28 13:39 | 52.22904 | 9.16998 | 38312 ft | 436 kts | 270° |
| 2026-04-28 13:40 | 52.22700 | 9.07114 | 38313 ft | 436 kts | 270° |
| 2026-04-28 13:40 | 52.22470 | 8.97239 | 38314 ft | 436 kts | 270° |
| 2026-04-28 13:41 | 52.22154 | 8.87356 | 38293 ft | 436 kts | 269° |
| 2026-04-28 13:41 | 52.21798 | 8.77466 | 38292 ft | 437 kts | 269° |
| 2026-04-28 13:42 | 52.21452 | 8.67626 | 38294 ft | 438 kts | 269° |
| 2026-04-28 13:42 | 52.21109 | 8.57705 | 38291 ft | 438 kts | 269° |
| 2026-04-28 13:43 | 52.20744 | 8.47776 | 38317 ft | 438 kts | 269° |
| 2026-04-28 13:43 | 52.20378 | 8.37878 | 38303 ft | 437 kts | 269° |
| 2026-04-28 13:44 | 52.19992 | 8.27979 | 38293 ft | 438 kts | 269° |
| 2026-04-28 13:44 | 52.19616 | 8.18063 | 38290 ft | 438 kts | 270° |
| 2026-04-28 13:45 | 52.19244 | 8.08138 | 38284 ft | 439 kts | 268° |
| 2026-04-28 13:45 | 52.18856 | 7.98283 | 38287 ft | 439 kts | 269° |
| 2026-04-28 13:46 | 52.18446 | 7.88349 | 38262 ft | 439 kts | 268° |
| 2026-04-28 13:46 | 52.18030 | 7.78413 | 38257 ft | 440 kts | 269° |
| 2026-04-28 13:47 | 52.17610 | 7.68434 | 38261 ft | 441 kts | 268° |
| 2026-04-28 13:47 | 52.17189 | 7.58458 | 38264 ft | 442 kts | 268° |
| 2026-04-28 13:48 | 52.16755 | 7.48473 | 38280 ft | 442 kts | 268° |
| 2026-04-28 13:48 | 52.16303 | 7.38474 | 38271 ft | 443 kts | 269° |
| 2026-04-28 13:49 | 52.15840 | 7.28465 | 38263 ft | 443 kts | 269° |
| 2026-04-28 13:49 | 52.15371 | 7.18504 | 38263 ft | 444 kts | 269° |
| 2026-04-28 13:50 | 52.14892 | 7.08471 | 38262 ft | 444 kts | 268° |
| 2026-04-28 13:50 | 52.14412 | 6.98432 | 38267 ft | 445 kts | 269° |
| 2026-04-28 13:51 | 52.13927 | 6.88385 | 38258 ft | 445 kts | 267° |
| 2026-04-28 13:51 | 52.13423 | 6.78313 | 38251 ft | 446 kts | 268° |
| 2026-04-28 13:52 | 52.12852 | 6.68307 | 38254 ft | 448 kts | 266° |
| 2026-04-28 13:52 | 52.12149 | 6.58207 | 38258 ft | 449 kts | 266° |
| 2026-04-28 13:53 | 52.11420 | 6.48120 | 38262 ft | 449 kts | 267° |
| 2026-04-28 13:53 | 52.10930 | 6.37982 | 38251 ft | 448 kts | 269° |
| 2026-04-28 13:54 | 52.10692 | 6.27843 | 38253 ft | 448 kts | 269° |
| 2026-04-28 13:54 | 52.10450 | 6.17718 | 38251 ft | 449 kts | 269° |
| 2026-04-28 13:55 | 52.10116 | 6.07570 | 38251 ft | 449 kts | 268° |
| 2026-04-28 13:55 | 52.09739 | 5.97416 | 38249 ft | 449 kts | 269° |
| 2026-04-28 13:56 | 52.09365 | 5.87288 | 38245 ft | 450 kts | 268° |
| 2026-04-28 13:56 | 52.08990 | 5.77116 | 38232 ft | 451 kts | 268° |
| 2026-04-28 13:57 | 52.08618 | 5.66997 | 38241 ft | 451 kts | 268° |
| 2026-04-28 13:57 | 52.08238 | 5.56804 | 38251 ft | 452 kts | 268° |
| 2026-04-28 13:58 | 52.07845 | 5.46601 | 38249 ft | 452 kts | 267° |
| 2026-04-28 13:58 | 52.07442 | 5.36561 | 38237 ft | 453 kts | 268° |
| 2026-04-28 13:59 | 52.07022 | 5.26326 | 38222 ft | 455 kts | 268° |
| 2026-04-28 13:59 | 52.06600 | 5.16058 | 38224 ft | 456 kts | 268° |
| 2026-04-28 14:00 | 52.06166 | 5.05780 | 38239 ft | 456 kts | 267° |
| 2026-04-28 14:00 | 52.05716 | 4.95483 | 38241 ft | 457 kts | 268° |
| 2026-04-28 14:01 | 52.05258 | 4.85174 | 38244 ft | 457 kts | 267° |
| 2026-04-28 14:01 | 52.04799 | 4.74936 | 38233 ft | 459 kts | 267° |
| 2026-04-28 14:02 | 52.04329 | 4.64599 | 38229 ft | 459 kts | 267° |
| 2026-04-28 14:02 | 52.03847 | 4.54251 | 38226 ft | 460 kts | 267° |
| 2026-04-28 14:03 | 52.03349 | 4.43898 | 38242 ft | 460 kts | 267° |
| 2026-04-28 14:03 | 52.02838 | 4.33536 | 38248 ft | 460 kts | 266° |
| 2026-04-28 14:04 | 52.02324 | 4.23188 | 38256 ft | 460 kts | 267° |
| 2026-04-28 14:04 | 52.01814 | 4.12834 | 38246 ft | 460 kts | 267° |
| 2026-04-28 14:05 | 52.01554 | 4.07661 | 38025 ft | 459 kts | 266° |
| 2026-04-28 14:05 | 52.01289 | 4.02505 | 37410 ft | 459 kts | 266° |
| 2026-04-28 14:05 | 52.01018 | 3.97323 | 36773 ft | 461 kts | 266° |
| 2026-04-28 14:05 | 52.00743 | 3.92141 | 36156 ft | 462 kts | 266° |
| 2026-04-28 14:06 | 52.00470 | 3.87008 | 35554 ft | 463 kts | 266° |
| 2026-04-28 14:06 | 52.00189 | 3.81737 | 34886 ft | 465 kts | 266° |
| 2026-04-28 14:06 | 51.99913 | 3.76566 | 34258 ft | 466 kts | 266° |
| 2026-04-28 14:06 | 51.99631 | 3.71325 | 33511 ft | 468 kts | 266° |
| 2026-04-28 14:07 | 51.99346 | 3.66061 | 32748 ft | 469 kts | 265° |
| 2026-04-28 14:07 | 51.99053 | 3.60776 | 32068 ft | 468 kts | 265° |
| 2026-04-28 14:07 | 51.98763 | 3.55583 | 31925 ft | 455 kts | 265° |
| 2026-04-28 14:07 | 51.98479 | 3.50500 | 31225 ft | 455 kts | 265° |
| 2026-04-28 14:08 | 51.98192 | 3.45374 | 30710 ft | 452 kts | 265° |
| 2026-04-28 14:08 | 51.97908 | 3.40364 | 30128 ft | 448 kts | 264° |
| 2026-04-28 14:08 | 51.97614 | 3.35230 | 28924 ft | 465 kts | 264° |
| 2026-04-28 14:08 | 51.97312 | 3.29961 | 28507 ft | 473 kts | 264° |
| 2026-04-28 14:09 | 51.97002 | 3.24617 | 28275 ft | 478 kts | 264° |
| 2026-04-28 14:09 | 51.96683 | 3.19236 | 28281 ft | 480 kts | 264° |
| 2026-04-28 14:09 | 51.96041 | 3.08741 | 28070 ft | 457 kts | 264° |
| 2026-04-28 14:10 | 51.95706 | 3.03567 | 27379 ft | 454 kts | 263° |
| 2026-04-28 14:10 | 51.95374 | 2.98565 | 26898 ft | 447 kts | 263° |
| 2026-04-28 14:10 | 51.95045 | 2.93639 | 26712 ft | 434 kts | 263° |
| 2026-04-28 14:10 | 51.94722 | 2.88815 | 26280 ft | 428 kts | 263° |
| 2026-04-28 14:11 | 51.94404 | 2.84071 | 25962 ft | 421 kts | 263° |
| 2026-04-28 14:11 | 51.94089 | 2.79376 | 25602 ft | 416 kts | 263° |
| 2026-04-28 14:11 | 51.93777 | 2.74753 | 25360 ft | 408 kts | 263° |
| 2026-04-28 14:11 | 51.93470 | 2.70237 | 25129 ft | 400 kts | 263° |
| 2026-04-28 14:12 | 51.93165 | 2.65786 | 24752 ft | 396 kts | 263° |
| 2026-04-28 14:12 | 51.92864 | 2.61361 | 24337 ft | 394 kts | 263° |
| 2026-04-28 14:12 | 51.92566 | 2.56968 | 23942 ft | 391 kts | 263° |
| 2026-04-28 14:12 | 51.92265 | 2.52582 | 23497 ft | 389 kts | 262° |
| 2026-04-28 14:13 | 51.91963 | 2.48245 | 23023 ft | 386 kts | 262° |
| 2026-04-28 14:13 | 51.91661 | 2.43945 | 22563 ft | 384 kts | 262° |
| 2026-04-28 14:13 | 51.91354 | 2.39652 | 22099 ft | 383 kts | 262° |
| 2026-04-28 14:13 | 51.91053 | 2.35431 | 21674 ft | 380 kts | 262° |
| 2026-04-28 14:14 | 51.90765 | 2.31187 | 21265 ft | 378 kts | 264° |
| 2026-04-28 14:14 | 51.90585 | 2.26966 | 20855 ft | 375 kts | 266° |
| 2026-04-28 14:14 | 51.90490 | 2.22763 | 20447 ft | 372 kts | 268° |
| 2026-04-28 14:14 | 51.90430 | 2.18574 | 20039 ft | 370 kts | 268° |
| 2026-04-28 14:15 | 51.90373 | 2.14417 | 19638 ft | 368 kts | 268° |
| 2026-04-28 14:15 | 51.90308 | 2.10302 | 19274 ft | 364 kts | 268° |
| 2026-04-28 14:15 | 51.90228 | 2.06211 | 18877 ft | 363 kts | 267° |
| 2026-04-28 14:15 | 51.90135 | 2.02142 | 18484 ft | 361 kts | 266° |
| 2026-04-28 14:16 | 51.90034 | 1.98109 | 18275 ft | 357 kts | 266° |
| 2026-04-28 14:16 | 51.90010 | 1.94078 | 18311 ft | 360 kts | 274° |
| 2026-04-28 14:16 | 51.90439 | 1.90070 | 18307 ft | 362 kts | 287° |
| 2026-04-28 14:16 | 51.91356 | 1.86280 | 18307 ft | 361 kts | 300° |
| 2026-04-28 14:17 | 51.92715 | 1.82881 | 18307 ft | 358 kts | 312° |
| 2026-04-28 14:17 | 51.94299 | 1.79833 | 18307 ft | 358 kts | 313° |
| 2026-04-28 14:17 | 51.95902 | 1.76748 | 18299 ft | 358 kts | 313° |
| 2026-04-28 14:17 | 51.97493 | 1.73667 | 17918 ft | 355 kts | 313° |
| 2026-04-28 14:18 | 51.99069 | 1.70603 | 17496 ft | 353 kts | 313° |
| 2026-04-28 14:18 | 52.00640 | 1.67547 | 17084 ft | 351 kts | 313° |
| 2026-04-28 14:18 | 52.02199 | 1.64510 | 16698 ft | 349 kts | 313° |
| 2026-04-28 14:18 | 52.03745 | 1.61495 | 16297 ft | 347 kts | 313° |
| 2026-04-28 14:19 | 52.05285 | 1.58496 | 15935 ft | 344 kts | 313° |
| 2026-04-28 14:19 | 52.06815 | 1.55519 | 15570 ft | 342 kts | 313° |
| 2026-04-28 14:19 | 52.08334 | 1.52556 | 15203 ft | 340 kts | 313° |
| 2026-04-28 14:19 | 52.09839 | 1.49617 | 14887 ft | 337 kts | 313° |
| 2026-04-28 14:20 | 52.11337 | 1.46685 | 14528 ft | 336 kts | 313° |
| 2026-04-28 14:20 | 52.12820 | 1.43779 | 14319 ft | 332 kts | 313° |
| 2026-04-28 14:20 | 52.14296 | 1.40878 | 14313 ft | 333 kts | 311° |
| 2026-04-28 14:20 | 52.15552 | 1.37687 | 14317 ft | 337 kts | 298° |
| 2026-04-28 14:21 | 52.16380 | 1.34114 | 14312 ft | 339 kts | 285° |
| 2026-04-28 14:21 | 52.16772 | 1.30318 | 14309 ft | 341 kts | 277° |
| 2026-04-28 14:21 | 52.17065 | 1.26475 | 14309 ft | 341 kts | 278° |
| 2026-04-28 14:21 | 52.17366 | 1.22653 | 14306 ft | 341 kts | 278° |
| 2026-04-28 14:22 | 52.17674 | 1.18824 | 14307 ft | 341 kts | 278° |
| 2026-04-28 14:22 | 52.17984 | 1.15000 | 14304 ft | 340 kts | 278° |
| 2026-04-28 14:22 | 52.18284 | 1.11225 | 14301 ft | 340 kts | 278° |
| 2026-04-28 14:22 | 52.18581 | 1.07401 | 14301 ft | 341 kts | 278° |
| 2026-04-28 14:23 | 52.18877 | 1.03569 | 14300 ft | 341 kts | 278° |
| 2026-04-28 14:23 | 52.19173 | 0.99736 | 14301 ft | 341 kts | 278° |
| 2026-04-28 14:23 | 52.19467 | 0.95902 | 14301 ft | 342 kts | 278° |
| 2026-04-28 14:23 | 52.19761 | 0.92055 | 14330 ft | 342 kts | 278° |
| 2026-04-28 14:24 | 52.20054 | 0.88202 | 14329 ft | 342 kts | 278° |
| 2026-04-28 14:24 | 52.20347 | 0.84337 | 14333 ft | 342 kts | 278° |
| 2026-04-28 14:24 | 52.20637 | 0.80500 | 14324 ft | 342 kts | 278° |
| 2026-04-28 14:24 | 52.20915 | 0.76785 | 14326 ft | 342 kts | 277° |
| 2026-04-28 14:25 | 52.21193 | 0.72989 | 14243 ft | 340 kts | 277° |
| 2026-04-28 14:25 | 52.21474 | 0.69195 | 14037 ft | 333 kts | 278° |
| 2026-04-28 14:25 | 52.21751 | 0.65498 | 14014 ft | 329 kts | 278° |
| 2026-04-28 14:25 | 52.22028 | 0.61790 | 13576 ft | 330 kts | 277° |
| 2026-04-28 14:26 | 52.22300 | 0.58088 | 13210 ft | 328 kts | 277° |
| 2026-04-28 14:26 | 52.22571 | 0.54396 | 12862 ft | 326 kts | 277° |
| 2026-04-28 14:26 | 52.22837 | 0.50739 | 12526 ft | 324 kts | 277° |
| 2026-04-28 14:26 | 52.23100 | 0.47088 | 12172 ft | 323 kts | 277° |
| 2026-04-28 14:27 | 52.23362 | 0.43456 | 11809 ft | 322 kts | 277° |
| 2026-04-28 14:27 | 52.23623 | 0.39830 | 11478 ft | 321 kts | 277° |
| 2026-04-28 14:27 | 52.23881 | 0.36239 | 11311 ft | 318 kts | 277° |
| 2026-04-28 14:27 | 52.24139 | 0.32642 | 11325 ft | 320 kts | 277° |
| 2026-04-28 14:28 | 52.24392 | 0.29035 | 11334 ft | 320 kts | 277° |
| 2026-04-28 14:28 | 52.24642 | 0.25432 | 11325 ft | 320 kts | 277° |
| 2026-04-28 14:28 | 52.24895 | 0.21820 | 11334 ft | 320 kts | 277° |
| 2026-04-28 14:28 | 52.25150 | 0.18213 | 11325 ft | 320 kts | 277° |
| 2026-04-28 14:29 | 52.25403 | 0.14647 | 11330 ft | 320 kts | 277° |
| 2026-04-28 14:29 | 52.25656 | 0.11035 | 11329 ft | 320 kts | 277° |
| 2026-04-28 14:29 | 52.25906 | 0.07423 | 11332 ft | 320 kts | 276° |
| 2026-04-28 14:29 | 52.26153 | 0.03819 | 11324 ft | 315 kts | 276° |
| 2026-04-28 14:30 | 52.26387 | 0.00344 | 11326 ft | 301 kts | 276° |
| 2026-04-28 14:30 | 52.26611 | -0.02990 | 11343 ft | 289 kts | 276° |
| 2026-04-28 14:30 | 52.26768 | -0.05145 | 11351 ft | 287 kts | 280° |
| 2026-04-28 14:30 | 52.27261 | -0.08298 | 11349 ft | 287 kts | 287° |
| 2026-04-28 14:31 | 52.27812 | -0.11423 | 11342 ft | 286 kts | 287° |
| 2026-04-28 14:31 | 52.28352 | -0.14558 | 11347 ft | 290 kts | 284° |
| 2026-04-28 14:31 | 52.28449 | -0.17863 | 11340 ft | 295 kts | 258° |
| 2026-04-28 14:31 | 52.27687 | -0.20858 | 11350 ft | 281 kts | 231° |
| 2026-04-28 14:32 | 52.26512 | -0.23381 | 11346 ft | 279 kts | 226° |
| 2026-04-28 14:32 | 52.25288 | -0.25834 | 11335 ft | 278 kts | 226° |
| 2026-04-28 14:32 | 52.24062 | -0.28272 | 11334 ft | 278 kts | 226° |
| 2026-04-28 14:32 | 52.22833 | -0.30715 | 11334 ft | 278 kts | 226° |
| 2026-04-28 14:33 | 52.21612 | -0.33141 | 11157 ft | 276 kts | 226° |
| 2026-04-28 14:33 | 52.20400 | -0.35549 | 10789 ft | 274 kts | 226° |
| 2026-04-28 14:33 | 52.19197 | -0.37944 | 10384 ft | 272 kts | 226° |
| 2026-04-28 14:33 | 52.18012 | -0.40298 | 10095 ft | 271 kts | 226° |
| 2026-04-28 14:34 | 52.15636 | -0.45030 | 9461 ft | 269 kts | 226° |
| 2026-04-28 14:34 | 52.14455 | -0.47387 | 9157 ft | 268 kts | 226° |
| 2026-04-28 14:34 | 52.13245 | -0.49677 | 8842 ft | 264 kts | 218° |
| 2026-04-28 14:35 | 52.11840 | -0.51568 | 8517 ft | 261 kts | 212° |
| 2026-04-28 14:35 | 52.10397 | -0.53349 | 8328 ft | 260 kts | 211° |
| 2026-04-28 14:35 | 52.08949 | -0.55122 | 8324 ft | 261 kts | 211° |
| 2026-04-28 14:35 | 52.07496 | -0.56899 | 8330 ft | 261 kts | 211° |
| 2026-04-28 14:36 | 52.06042 | -0.58676 | 8327 ft | 261 kts | 211° |
| 2026-04-28 14:36 | 52.04593 | -0.60444 | 8328 ft | 261 kts | 211° |
| 2026-04-28 14:36 | 52.03146 | -0.62224 | 8248 ft | 260 kts | 211° |
| 2026-04-28 14:36 | 52.01710 | -0.64005 | 7907 ft | 260 kts | 211° |
| 2026-04-28 14:37 | 52.00272 | -0.65788 | 7588 ft | 260 kts | 211° |
| 2026-04-28 14:37 | 51.98835 | -0.67562 | 7279 ft | 259 kts | 211° |
| 2026-04-28 14:37 | 51.97400 | -0.69330 | 6918 ft | 259 kts | 211° |
| 2026-04-28 14:37 | 51.95962 | -0.71058 | 6536 ft | 254 kts | 205° |
| 2026-04-28 14:38 | 51.94368 | -0.72032 | 6003 ft | 242 kts | 184° |
| 2026-04-28 14:38 | 51.92706 | -0.72523 | 5553 ft | 243 kts | 181° |
| 2026-04-28 14:38 | 51.91044 | -0.72951 | 5107 ft | 241 kts | 181° |
| 2026-04-28 14:38 | 51.89389 | -0.73363 | 5009 ft | 239 kts | 181° |
| 2026-04-28 14:39 | 51.87793 | -0.73760 | 5013 ft | 225 kts | 181° |
| 2026-04-28 14:39 | 51.86295 | -0.74155 | 5012 ft | 211 kts | 179° |
| 2026-04-28 14:39 | 51.84951 | -0.73938 | 5012 ft | 187 kts | 144° |
| 2026-04-28 14:39 | 51.84004 | -0.72731 | 4931 ft | 163 kts | 125° |
| 2026-04-28 14:40 | 51.83203 | -0.71529 | 4789 ft | 155 kts | 128° |
| 2026-04-28 14:40 | 51.82687 | -0.70743 | 4700 ft | 144 kts | 123° |
| 2026-04-28 14:40 | 51.82114 | -0.68958 | 4429 ft | 138 kts | 95° |
| 2026-04-28 14:40 | 51.82127 | -0.67413 | 4250 ft | 138 kts | 74° |
| 2026-04-28 14:41 | 51.82388 | -0.65915 | 4066 ft | 139 kts | 71° |
| 2026-04-28 14:41 | 51.82652 | -0.64415 | 3878 ft | 140 kts | 71° |
| 2026-04-28 14:41 | 51.82920 | -0.62896 | 3679 ft | 140 kts | 70° |
| 2026-04-28 14:41 | 51.83178 | -0.61424 | 3504 ft | 141 kts | 70° |
| 2026-04-28 14:42 | 51.83445 | -0.59901 | 3322 ft | 141 kts | 69° |
| 2026-04-28 14:42 | 51.83712 | -0.58380 | 3119 ft | 141 kts | 69° |
| 2026-04-28 14:42 | 51.83978 | -0.56865 | 2925 ft | 140 kts | 69° |
| 2026-04-28 14:42 | 51.84245 | -0.55339 | 2740 ft | 141 kts | 70° |
| 2026-04-28 14:43 | 51.84500 | -0.53873 | 2548 ft | 130 kts | 69° |
| 2026-04-28 14:43 | 51.84741 | -0.52495 | 2377 ft | 126 kts | 69° |
| 2026-04-28 14:43 | 51.84981 | -0.51124 | 2201 ft | 126 kts | 69° |
| 2026-04-28 14:43 | 51.85218 | -0.49764 | 2032 ft | 125 kts | 69° |
| 2026-04-28 14:44 | 51.85455 | -0.48405 | 1845 ft | 125 kts | 69° |
| 2026-04-28 14:44 | 51.85693 | -0.47041 | 1680 ft | 127 kts | 70° |
| 2026-04-28 14:44 | 51.85929 | -0.45684 | 1497 ft | 124 kts | 69° |
| 2026-04-28 14:44 | 51.86161 | -0.44326 | 1377 ft | 127 kts | 69° |
| 2026-04-28 14:45 | 51.86398 | -0.42970 | 1182 ft | 125 kts | 69° |
| 2026-04-28 14:45 | 51.86637 | -0.41603 | 951 ft | 127 kts | 68° |
| 2026-04-28 14:45 | 51.86876 | -0.40234 | 794 ft | 127 kts | 70° |
| 2026-04-28 14:45 | 51.87106 | -0.38857 | 592 ft | 125 kts | 69° |
| 2026-04-28 14:46 | 51.87315 | -0.37533 | 527 ft | 114 kts | 59° |
| 2026-04-28 14:46 | 51.87477 | -0.36407 | 557 ft | 98 kts | 38° |